LIRM

Grazzanise Airport

Caserta, Italy
TAF LIRM 212300Z 2200/2209 04010KT 7000 RA SCT020 BKN050 TEMPO 2200/2206 4000 TSRA FEW020CB BKN025
Issued Valid From Valid To
Jan-21 @ 23:00 UTC
(2 hours ago)
Jan-22 @ 00:00 UTC
(42 minutes ago)
Jan-22 @ 09:00 UTC
(in 8 hours)
Jan-22 @ 00:00 to Jan-22 @ 09:00
TAF LIRM 212300Z 2200/2209 04010KT 7000 RA SCT020 BKN050
Wind Visibility Clouds Conditions
40° at 10 knots 7,001 meters
  • Scattered at 2,000' AGL
  • Broken at 5,000' AGL
  • Rain
Temporary Jan-22 @ 00:00 to Jan-22 @ 06:00
TEMPO 2200/2206 4000 TSRA FEW020CB BKN025
Visibility Clouds Conditions
4,007 meters
  • Few at 2,000' AGL
  • Broken at 2,500' AGL
  • Thunderstorm
  • Rain
TAF LIRM 212300Z 2200/2209 04010KT 7000 RA SCT020 BKN050 TEMPO 2200/2206 4000 TSRA FEW020CB BKN025
Issued Jan-21 @ 23:00 UTC
(2 hours ago)
Valid From Jan-22 @ 00:00 UTC
(42 minutes ago)
Valid To Jan-22 @ 09:00 UTC
(in 8 hours)
Jan-22 @ 00:00 - Jan-22 @ 09:00
Wind Visibility
40° at 10 knots 7,001 meters
Clouds
  • Scattered at 2,000' AGL
  • Broken at 5,000' AGL
Conditions
  • Rain
Temporary Jan-22 @ 00:00 - Jan-22 @ 06:00
Clouds
  • Few at 2,000' AGL
  • Broken at 2,500' AGL
Conditions
  • Thunderstorm
  • Rain